Time;durP1;ratioP1;P1;durP2;ratioP2;P2;SDS_P1;SDS_P2;PMS_P1;PMS_P2;Temp;Humidity;BMP_temperature;BMP_pressure;BME280_temperature;BME280_humidity;BME280_pressure;Samples;Min_cycle;Max_cycle;Signal;HPM_P1;HPM_P2
2020/12/31 00:00:27;;;;;;;0.75;0.60;;;;;;;22.67;36.94;100248.97;4995427;28;96948;-54
2020/12/31 00:03:07;;;;;;;0.93;0.70;;;;;;;22.66;36.83;100244.63;5009974;28;96926;-54
2020/12/31 00:05:47;;;;;;;0.85;0.70;;;;;;;22.66;37.02;100233.13;4985274;28;99637;-54
2020/12/31 00:08:40;;;;;;;1.15;0.70;;;;;;;22.63;36.78;100237.63;5004269;28;97458;-54
2020/12/31 00:14:56;;;;;;;0.82;0.60;;;;;;;22.65;36.70;100240.22;4936140;28;96999;-54
2020/12/31 00:17:49;;;;;;;0.80;0.70;;;;;;;22.62;36.80;100241.25;4998662;28;97481;-54
2020/12/31 00:20:39;;;;;;;1.00;0.82;;;;;;;22.63;36.70;100239.44;4995366;28;97323;-54
2020/12/31 00:23:18;;;;;;;1.15;0.75;;;;;;;22.63;36.73;100242.94;4991395;28;96791;-54
2020/12/31 00:26:20;;;;;;;0.80;0.60;;;;;;;22.61;36.67;100242.16;5008969;28;96786;-54
2020/12/31 00:28:57;;;;;;;0.70;0.50;;;;;;;22.63;36.96;100252.72;5010998;28;97439;-54
2020/12/31 00:32:02;;;;;;;;;;;;;;;;;;;;;
2020/12/31 00:34:44;;;;;;;0.70;0.50;;;;;;;22.64;36.46;100238.53;5011246;28;96754;-54
2020/12/31 00:37:18;;;;;;;0.68;0.50;;;;;;;22.62;36.53;100227.97;4973216;28;96948;-54
2020/12/31 00:40:59;;;;;;;0.77;0.60;;;;;;;22.61;36.52;100234.19;4998241;28;97386;-54
2020/12/31 00:43:40;;;;;;;0.95;0.57;;;;;;;22.63;36.66;100223.50;5010251;28;97148;-54
2020/12/31 00:46:29;;;;;;;0.80;0.63;;;;;;;22.63;36.85;100226.16;5007835;28;96796;-54
2020/12/31 00:49:17;;;;;;;1.00;0.60;;;;;;;22.62;36.38;100233.28;4993151;28;97004;-54
2020/12/31 00:52:24;;;;;;;0.75;0.52;;;;;;;22.65;36.59;100226.09;5011448;28;97404;-54
2020/12/31 00:55:07;;;;;;;0.80;0.60;;;;;;;22.64;36.78;100233.19;4973616;28;99284;-54
2020/12/31 00:57:51;;;;;;;1.08;0.60;;;;;;;22.65;36.70;100228.75;4992970;28;96938;-54
2020/12/31 01:00:39;;;;;;;0.70;0.40;;;;;;;22.65;36.54;100226.09;4964774;28;97056;-54
2020/12/31 01:03:24;;;;;;;0.82;0.70;;;;;;;22.64;36.34;100217.25;4977708;28;97667;-54
2020/12/31 01:06:01;;;;;;;0.70;0.50;;;;;;;22.65;36.33;100220.75;4987901;28;97443;-54
2020/12/31 01:08:56;;;;;;;0.70;0.50;;;;;;;22.66;36.28;100227.81;5009586;28;96953;-54
2020/12/31 01:11:32;;;;;;;0.80;0.50;;;;;;;22.65;36.63;100223.44;4992733;28;97064;-54
2020/12/31 01:14:17;;;;;;;1.00;0.60;;;;;;;22.64;36.34;100217.25;4971065;28;96959;-54
2020/12/31 01:16:49;;;;;;;0.98;0.60;;;;;;;22.63;36.50;100221.69;5012056;28;97566;-54
2020/12/31 01:19:37;;;;;;;0.75;0.47;;;;;;;22.65;36.51;100221.63;4992274;28;97064;-54
2020/12/31 01:22:19;;;;;;;0.90;0.52;;;;;;;22.65;36.14;100218.09;4985648;28;97059;-54
2020/12/31 01:24:51;;;;;;;0.70;0.40;;;;;;;22.65;36.60;100215.44;4994132;28;97862;-54
2020/12/31 01:28:00;;;;;;;0.80;0.50;;;;;;;22.62;36.12;100219.97;5015491;28;98515;-54
2020/12/31 01:30:32;;;;;;;0.75;0.60;;;;;;;22.66;36.32;100220.69;5010802;28;97146;-54
2020/12/31 01:32:59;;;;;;;0.82;0.65;;;;;;;22.65;36.50;100212.78;5014231;28;96960;-54
2020/12/31 01:35:53;;;;;;;0.50;0.40;;;;;;;22.65;35.95;100220.75;4997176;28;97765;-54
2020/12/31 01:39:10;;;;;;;0.60;0.47;;;;;;;22.64;36.29;100217.25;5014360;28;96921;-54
2020/12/31 01:41:57;;;;;;;0.70;0.40;;;;;;;22.63;35.94;100218.19;5015827;28;96748;-54
2020/12/31 01:44:30;;;;;;;0.77;0.40;;;;;;;22.63;36.39;100221.69;4976756;28;96872;-54
2020/12/31 01:47:02;;;;;;;0.80;0.40;;;;;;;22.62;35.95;100213.81;5010706;28;97700;-54
2020/12/31 01:49:54;;;;;;;0.70;0.43;;;;;;;22.62;36.28;100219.97;4993944;28;97503;-54
2020/12/31 01:52:40;;;;;;;0.52;0.40;;;;;;;22.61;36.13;100238.66;4998988;28;96828;-54
2020/12/31 01:55:15;;;;;;;0.60;0.40;;;;;;;22.62;36.13;100225.28;5001541;28;96989;-54
2020/12/31 01:57:53;;;;;;;0.68;0.40;;;;;;;22.62;35.93;100225.28;4994490;28;97538;-54
2020/12/31 02:00:25;;;;;;;0.63;0.43;;;;;;;22.62;36.21;100222.63;4980328;28;97203;-54
2020/12/31 02:03:31;;;;;;;0.57;0.43;;;;;;;22.61;36.09;100223.56;4976762;28;96812;-54
2020/12/31 02:06:44;;;;;;;0.40;0.30;;;;;;;22.60;35.85;100213.88;5012349;28;96905;-54
2020/12/31 02:09:19;;;;;;;0.77;0.40;;;;;;;22.63;35.92;100213.72;5011959;28;97474;-54
2020/12/31 02:11:54;;;;;;;0.60;0.40;;;;;;;22.62;35.99;100206.69;4998042;28;97379;-54
2020/12/31 02:14:32;;;;;;;1.00;0.40;;;;;;;22.62;35.94;100213.81;4996539;28;97016;-54
2020/12/31 02:17:08;;;;;;;0.70;0.40;;;;;;;22.62;35.63;100205.84;4989347;28;96766;-54
2020/12/31 02:20:10;;;;;;;0.30;0.30;;;;;;;22.61;35.80;100210.28;4999023;28;126556;-54
2020/12/31 02:22:54;;;;;;;0.70;0.40;;;;;;;22.63;35.76;100204.88;5014213;28;97188;-54
2020/12/31 02:25:46;;;;;;;0.37;0.30;;;;;;;22.63;35.60;100212.84;4986724;28;96669;-54
2020/12/31 02:28:15;;;;;;;0.50;0.40;;;;;;;22.61;35.58;100202.28;5022393;22;96901;-53
2020/12/31 02:30:40;;;;;;;0.65;0.47;;;;;;;22.62;35.80;100206.69;5014411;28;97732;-53
2020/12/31 02:33:06;;;;;;;0.50;0.40;;;;;;;22.62;35.41;100206.69;4985907;28;126576;-53
2020/12/31 02:35:31;;;;;;;0.60;0.40;;;;;;;22.62;35.80;100204.03;5004075;28;116810;-53
2020/12/31 02:37:57;;;;;;;0.57;0.40;;;;;;;22.63;35.36;100208.41;4988996;28;96714;-53
2020/12/31 02:40:22;;;;;;;0.60;0.50;;;;;;;22.65;35.37;100207.47;5005563;28;97498;-53
2020/12/31 02:42:48;;;;;;;0.40;0.30;;;;;;;22.64;35.31;100206.63;5005454;28;126456;-53
2020/12/31 02:45:13;;;;;;;0.60;0.40;;;;;;;22.65;35.25;100204.81;4985574;28;117579;-53
2020/12/31 02:47:39;;;;;;;0.95;0.50;;;;;;;22.64;35.61;100209.28;5004829;28;116845;-53
2020/12/31 02:50:04;;;;;;;0.75;0.45;;;;;;;22.65;35.23;100207.47;5014441;28;97608;-53
2020/12/31 02:52:30;;;;;;;0.57;0.40;;;;;;;22.65;35.43;100204.81;4989949;28;119678;-53
2020/12/31 02:54:55;;;;;;;0.50;0.30;;;;;;;22.65;35.41;100203.00;5004227;28;116905;-53
2020/12/31 02:57:21;;;;;;;0.50;0.40;;;;;;;22.66;35.44;100201.25;4976247;28;112649;-53
2020/12/31 02:59:46;;;;;;;0.60;0.40;;;;;;;22.65;35.04;100199.50;5044701;22;98397;-55
2020/12/31 03:02:12;;;;;;;0.68;0.43;;;;;;;22.65;35.23;100195.03;5011811;28;127785;-56
2020/12/31 03:04:37;;;;;;;0.52;0.47;;;;;;;22.65;34.98;100199.50;4994225;28;118346;-55
2020/12/31 03:07:02;;;;;;;0.60;0.57;;;;;;;22.66;35.31;100195.91;5009449;28;117629;-55
2020/12/31 03:09:28;;;;;;;0.55;0.40;;;;;;;22.66;34.98;100198.59;5013023;28;100442;-55
2020/12/31 03:11:53;;;;;;;0.68;0.50;;;;;;;22.67;35.22;100200.28;5009882;28;126457;-55
2020/12/31 03:14:19;;;;;;;0.50;0.40;;;;;;;22.67;35.14;100197.63;4990305;28;116704;-56
2020/12/31 03:16:44;;;;;;;0.57;0.50;;;;;;;22.66;34.82;100199.44;4992940;28;117497;-55
2020/12/31 03:19:09;;;;;;;0.57;0.43;;;;;;;22.67;34.64;100193.16;4992230;28;98475;-55
2020/12/31 03:21:35;;;;;;;0.70;0.50;;;;;;;22.67;35.10;100192.31;5008981;28;126972;-55
2020/12/31 03:24:00;;;;;;;0.50;0.40;;;;;;;22.67;34.98;100189.66;4993162;28;109265;-55
2020/12/31 03:26:26;;;;;;;0.35;0.30;;;;;;;22.66;34.91;100186.13;5013192;28;116678;-55
2020/12/31 03:28:52;;;;;;;0.32;0.32;;;;;;;22.66;34.87;100188.81;5009615;28;115559;-56
2020/12/31 03:31:17;;;;;;;0.50;0.40;;;;;;;22.66;35.00;100186.13;5007921;28;104322;-55
2020/12/31 03:33:43;;;;;;;0.63;0.50;;;;;;;22.66;35.18;100185.28;5011453;28;96690;-56
2020/12/31 03:36:08;;;;;;;0.70;0.50;;;;;;;22.66;34.77;100179.97;4992582;28;96963;-56
2020/12/31 03:38:34;;;;;;;1.70;1.60;;;;;;;22.65;34.93;100176.44;5011401;28;100082;-55
2020/12/31 03:40:59;;;;;;;1.90;1.80;;;;;;;22.66;35.05;100178.16;5008386;28;127066;-55
2020/12/31 03:43:25;;;;;;;0.68;0.40;;;;;;;22.65;35.02;100173.78;5013181;28;96802;-55
2020/12/31 03:45:50;;;;;;;0.90;0.90;;;;;;;22.65;34.67;100176.44;5008517;28;117208;-55
2020/12/31 03:48:15;;;;;;;0.63;0.60;;;;;;;22.66;35.05;100172.00;4978514;28;97454;-55
2020/12/31 03:50:41;;;;;;;0.60;0.40;;;;;;;22.66;34.67;100164.03;5011807;28;126883;-55
2020/12/31 03:53:06;;;;;;;1.30;1.20;;;;;;;22.65;34.80;100165.78;4991157;28;116611;-55
2020/12/31 03:55:32;;;;;;;0.40;0.40;;;;;;;22.66;34.67;100166.69;4994127;28;118806;-55
2020/12/31 03:57:57;;;;;;;0.63;0.50;;;;;;;22.66;34.50;100172.00;4990498;28;99469;-55
2020/12/31 04:00:23;;;;;;;0.40;0.40;;;;;;;22.66;34.43;100164.88;5012486;28;113766;-56
2020/12/31 04:02:48;;;;;;;0.60;0.50;;;;;;;22.65;34.56;100163.13;4991634;28;117049;-55
2020/12/31 04:05:14;;;;;;;0.43;0.40;;;;;;;22.65;34.82;100156.97;5014520;28;103048;-56
2020/12/31 04:07:39;;;;;;;0.50;0.40;;;;;;;22.67;34.37;100157.75;5015306;28;97476;-55
2020/12/31 04:10:05;;;;;;;0.40;0.30;;;;;;;22.66;34.34;100151.59;4991150;28;126782;-56
2020/12/31 04:12:30;;;;;;;0.70;0.40;;;;;;;22.66;34.32;100150.72;4994644;28;96855;-55
2020/12/31 04:14:56;;;;;;;0.43;0.30;;;;;;;22.66;34.59;100148.06;4994693;28;96972;-55
2020/12/31 04:17:21;;;;;;;0.60;0.60;;;;;;;22.65;34.69;100138.38;4977325;28;98570;-55
2020/12/31 04:19:46;;;;;;;0.60;0.40;;;;;;;22.68;34.24;100140.88;5010036;28;127135;-55
2020/12/31 04:22:12;;;;;;;0.40;0.40;;;;;;;22.68;34.62;100140.88;5011823;28;117656;-55
2020/12/31 04:24:37;;;;;;;0.70;0.40;;;;;;;22.66;34.27;100135.63;5011299;28;116723;-55
2020/12/31 04:27:03;;;;;;;0.60;0.40;;;;;;;22.67;34.51;100134.69;4993630;28;126951;-56
2020/12/31 04:29:28;;;;;;;0.60;0.50;;;;;;;22.68;34.24;100130.25;5009527;28;97380;-55
2020/12/31 04:31:54;;;;;;;0.70;0.50;;;;;;;22.67;34.46;100134.69;4994432;28;96909;-55
2020/12/31 04:34:19;;;;;;;1.00;0.35;;;;;;;22.67;34.43;100129.38;5009954;28;116562;-55
2020/12/31 04:36:44;;;;;;;0.50;0.30;;;;;;;22.66;34.34;100125.00;5011214;28;97520;-56
2020/12/31 04:39:10;;;;;;;0.40;0.40;;;;;;;22.67;34.25;100128.50;5009343;28;122766;-56
2020/12/31 04:41:35;;;;;;;0.30;0.30;;;;;;;22.66;34.43;100129.47;4990919;28;96909;-55
2020/12/31 04:44:04;;;;;;;0.98;0.65;;;;;;;22.66;34.34;100122.34;4991567;28;117620;-55
2020/12/31 04:46:33;;;;;;;0.52;0.50;;;;;;;22.66;34.15;100117.03;4994524;28;97432;-55
2020/12/31 04:49:11;;;;;;;0.40;0.32;;;;;;;22.64;34.25;100121.56;4979470;28;97595;-55
2020/12/31 04:51:37;;;;;;;0.63;0.50;;;;;;;22.67;34.15;100117.88;4993217;28;96732;-56
2020/12/31 04:54:06;;;;;;;0.50;0.40;;;;;;;22.66;33.95;100116.19;5011799;28;97118;-55
2020/12/31 04:56:36;;;;;;;0.38;0.30;;;;;;;22.66;34.01;100118.84;4994809;28;97531;-56
2020/12/31 04:59:03;;;;;;;0.40;0.40;;;;;;;22.66;33.94;100124.16;5009946;28;97322;-55
2020/12/31 05:01:28;;;;;;;0.50;0.30;;;;;;;22.66;34.15;100122.34;4994406;28;105945;-55
2020/12/31 05:03:54;;;;;;;0.70;0.50;;;;;;;22.66;34.21;100117.03;4976503;28;97167;-55
2020/12/31 05:06:21;;;;;;;0.52;0.40;;;;;;;22.67;34.25;100123.19;5010831;28;126812;-56
2020/12/31 05:08:46;;;;;;;0.60;0.50;;;;;;;22.66;33.93;100114.38;4992661;28;109499;-55
2020/12/31 05:11:12;;;;;;;0.52;0.40;;;;;;;22.66;33.98;100116.19;4994591;28;98132;-55
2020/12/31 05:13:50;;;;;;;0.80;0.52;;;;;;;22.64;34.05;100113.59;4993568;28;96784;-56
2020/12/31 05:16:28;;;;;;;0.68;0.40;;;;;;;22.63;34.06;100118.03;4992022;28;97372;-55
2020/12/31 05:18:56;;;;;;;0.50;0.40;;;;;;;22.65;33.74;100111.78;5012252;28;97160;-55
2020/12/31 05:21:22;;;;;;;0.32;0.30;;;;;;;22.64;33.77;100113.59;4991912;28;117137;-55
2020/12/31 05:23:48;;;;;;;0.50;0.45;;;;;;;22.65;34.06;100111.78;4993440;28;97383;-55
2020/12/31 05:26:27;;;;;;;0.40;0.30;;;;;;;22.62;33.64;100112.81;4993222;28;98394;-55
2020/12/31 05:28:52;;;;;;;0.25;0.25;;;;;;;22.65;33.76;100115.28;4992683;28;97478;-55
2020/12/31 05:31:21;;;;;;;0.50;0.32;;;;;;;22.64;33.66;100121.56;4989885;28;117911;-56
2020/12/31 05:33:46;;;;;;;0.70;0.40;;;;;;;22.65;33.96;100117.94;4978076;28;96802;-55
2020/12/31 05:36:23;;;;;;;0.30;0.30;;;;;;;22.63;33.62;100123.34;5007050;28;126971;-55
2020/12/31 05:38:54;;;;;;;0.40;0.30;;;;;;;22.64;33.88;100116.25;4974802;28;97194;-56
2020/12/31 05:41:19;;;;;;;0.40;0.30;;;;;;;22.65;33.60;100117.09;5011662;28;96786;-55
2020/12/31 05:43:45;;;;;;;0.43;0.30;;;;;;;22.65;33.83;100114.44;4975795;28;116681;-55
2020/12/31 05:46:11;;;;;;;0.52;0.40;;;;;;;22.64;33.70;100116.25;4975560;28;127138;-56
2020/12/31 05:48:37;;;;;;;0.60;0.47;;;;;;;22.65;33.86;100123.28;4991392;28;97448;-55
2020/12/31 05:51:24;;;;;;;0.50;0.40;;;;;;;22.62;33.72;100118.97;5010967;28;97514;-56
2020/12/31 05:53:50;;;;;;;0.50;0.30;;;;;;;22.65;33.50;100117.09;5006718;28;99998;-56
2020/12/31 05:56:17;;;;;;;0.50;0.25;;;;;;;22.63;33.63;100120.69;4970447;28;97943;-56
2020/12/31 05:58:49;;;;;;;0.50;0.30;;;;;;;22.63;33.68;100118.03;5012093;28;99201;-56
2020/12/31 06:01:15;;;;;;;0.30;0.30;;;;;;;22.65;33.30;100117.09;5011520;28;96962;-55
2020/12/31 06:03:48;;;;;;;0.70;0.50;;;;;;;22.63;33.22;100115.38;5014511;28;97315;-56
2020/12/31 06:06:16;;;;;;;0.45;0.30;;;;;;;22.65;33.68;100114.44;4996824;28;98168;-56
2020/12/31 06:08:56;;;;;;;0.57;0.40;;;;;;;22.65;33.51;100122.41;4979374;28;119775;-55
2020/12/31 06:11:42;;;;;;;0.60;0.40;;;;;;;22.62;33.44;100121.63;4998172;28;96752;-56
2020/12/31 06:14:07;;;;;;;0.30;0.30;;;;;;;22.65;33.31;100120.63;4996507;28;97071;-55
2020/12/31 06:16:37;;;;;;;0.55;0.30;;;;;;;22.65;33.28;100130.38;4979444;28;126768;-56
2020/12/31 06:19:11;;;;;;;0.30;0.30;;;;;;;22.63;33.49;100135.78;4994574;28;100493;-55
2020/12/31 06:21:43;;;;;;;0.22;0.22;;;;;;;22.63;33.36;100131.31;4979142;28;112598;-55
2020/12/31 06:24:14;;;;;;;0.43;0.32;;;;;;;22.62;33.38;100126.94;4995006;28;97512;-55
2020/12/31 06:26:43;;;;;;;0.38;0.30;;;;;;;22.63;33.36;100130.47;4980324;28;100261;-55
2020/12/31 06:29:09;;;;;;;0.70;0.60;;;;;;;22.63;33.31;100128.66;5013633;28;97339;-56
2020/12/31 06:31:34;;;;;;;0.20;0.20;;;;;;;22.63;33.26;100126.00;5014779;28;96791;-56
2020/12/31 06:34:00;;;;;;;0.60;0.52;;;;;;;22.63;33.30;100130.47;5011051;28;101522;-56
2020/12/31 06:36:33;;;;;;;0.50;0.30;;;;;;;22.62;33.07;100129.59;5012095;28;118754;-56
2020/12/31 06:38:58;;;;;;;0.47;0.30;;;;;;;22.63;33.35;100131.31;4978484;28;120899;-55
2020/12/31 06:41:30;;;;;;;0.47;0.30;;;;;;;22.63;33.26;100125.16;5012134;28;96899;-56
2020/12/31 06:44:15;;;;;;;0.40;0.30;;;;;;;22.61;33.35;100121.72;5011297;28;96821;-56
2020/12/31 06:46:45;;;;;;;0.63;0.30;;;;;;;22.62;33.01;100126.94;4977749;28;97648;-55
2020/12/31 06:49:10;;;;;;;0.43;0.30;;;;;;;22.63;33.09;100125.16;5011273;28;97165;-56
2020/12/31 06:51:36;;;;;;;0.40;0.40;;;;;;;22.62;33.29;100131.41;5013190;28;104041;-56
2020/12/31 06:54:01;;;;;;;0.68;0.40;;;;;;;22.62;32.90;100128.75;5014156;28;96634;-55
2020/12/31 06:56:43;;;;;;;0.60;0.60;;;;;;;22.60;33.01;100138.56;4993564;28;97482;-56
2020/12/31 06:59:30;;;;;;;0.47;0.40;;;;;;;22.60;32.99;100141.25;5011207;28;96843;-56
2020/12/31 07:01:56;;;;;;;0.70;0.70;;;;;;;22.60;33.12;100136.81;5012844;28;96986;-55
2020/12/31 07:04:35;;;;;;;0.30;0.30;;;;;;;22.59;33.30;100145.69;4994016;28;96907;-55
2020/12/31 07:07:20;;;;;;;0.50;0.50;;;;;;;22.58;33.08;100145.78;4992080;28;97448;-55
2020/12/31 07:09:55;;;;;;;0.55;0.28;;;;;;;22.59;32.69;100142.19;4989469;28;100091;-56
2020/12/31 07:12:38;;;;;;;0.80;0.40;;;;;;;22.57;32.66;100131.63;5010988;28;97648;-55
2020/12/31 07:15:09;;;;;;;0.50;0.30;;;;;;;22.59;32.98;100132.41;5011794;28;96771;-56
2020/12/31 07:17:40;;;;;;;0.80;0.35;;;;;;;22.58;32.91;100141.34;5012700;28;97588;-55
2020/12/31 07:20:07;;;;;;;0.40;0.32;;;;;;;22.58;32.57;100141.34;4995494;28;100126;-55
2020/12/31 07:22:35;;;;;;;0.50;0.28;;;;;;;22.58;32.66;100136.03;4993259;28;97336;-55
2020/12/31 07:25:07;;;;;;;0.45;0.40;;;;;;;22.57;32.83;100142.25;4995463;28;107798;-55
2020/12/31 07:27:37;;;;;;;0.50;0.40;;;;;;;22.57;32.86;100144.91;5011798;28;97423;-55
2020/12/31 07:30:08;;;;;;;0.80;0.60;;;;;;;22.57;32.66;100142.25;5011148;28;97282;-55
2020/12/31 07:32:56;;;;;;;0.60;0.50;;;;;;;22.56;32.87;100139.66;5009947;28;96929;-56
2020/12/31 07:35:25;;;;;;;0.43;0.40;;;;;;;22.57;32.48;100150.22;4992170;28;96792;-55
2020/12/31 07:38:04;;;;;;;0.63;0.50;;;;;;;22.57;32.49;100147.56;4977019;28;100346;-55
2020/12/31 07:40:38;;;;;;;0.55;0.55;;;;;;;22.57;32.62;100150.22;5010171;28;97276;-55
2020/12/31 07:43:27;;;;;;;1.27;1.25;;;;;;;22.58;32.93;100151.97;5008964;28;98568;-55
2020/12/31 07:45:55;;;;;;;0.68;0.55;;;;;;;22.59;32.88;100152.81;5009962;28;96727;-55
2020/12/31 07:48:20;;;;;;;0.50;0.50;;;;;;;22.59;32.85;100147.50;4989726;28;97725;-55
2020/12/31 07:50:46;;;;;;;0.60;0.50;;;;;;;22.59;32.61;100160.78;5011976;28;122284;-56
2020/12/31 07:53:12;;;;;;;1.05;1.05;;;;;;;22.59;32.50;100163.44;4976946;28;98357;-56
2020/12/31 07:55:38;;;;;;;0.20;0.20;;;;;;;22.59;32.53;100159.00;5013143;28;96800;-56
2020/12/31 07:58:07;;;;;;;0.68;0.65;;;;;;;22.59;32.61;100158.13;5012289;28;97270;-55
2020/12/31 08:00:33;;;;;;;0.73;0.73;;;;;;;22.60;32.52;100173.13;4994276;28;97489;-55
2020/12/31 08:02:59;;;;;;;1.25;1.17;;;;;;;22.60;32.48;100165.16;4992891;28;96744;-55
2020/12/31 08:05:25;;;;;;;0.65;0.45;;;;;;;22.59;32.30;100160.78;5011296;28;116132;-55
2020/12/31 08:07:54;;;;;;;0.70;0.40;;;;;;;22.59;32.37;100155.47;5013029;28;108343;-55
2020/12/31 08:10:20;;;;;;;0.60;0.55;;;;;;;22.59;32.27;100156.34;4991255;28;123413;-55
2020/12/31 08:12:53;;;;;;;0.88;0.88;;;;;;;22.59;32.33;100158.13;4976698;28;98121;-55
2020/12/31 08:15:25;;;;;;;0.65;0.55;;;;;;;22.59;32.24;100153.69;5013824;28;98198;-55
2020/12/31 08:17:51;;;;;;;1.00;0.70;;;;;;;22.59;32.16;100159.00;5012091;28;97551;-56
2020/12/31 08:20:18;;;;;;;1.27;1.02;;;;;;;22.59;32.38;100161.66;4974232;28;126079;-55
2020/12/31 08:22:43;;;;;;;0.80;0.60;;;;;;;22.59;32.37;100153.69;5013877;28;97016;-55
2020/12/31 08:25:10;;;;;;;0.70;0.52;;;;;;;22.59;32.07;100160.78;4977725;28;116840;-55
2020/12/31 08:27:37;;;;;;;0.57;0.40;;;;;;;22.59;32.47;100161.66;4992796;28;97630;-55
2020/12/31 08:30:04;;;;;;;0.70;0.60;;;;;;;22.59;32.22;100160.78;5011315;28;97271;-56
2020/12/31 08:32:30;;;;;;;1.77;0.80;;;;;;;22.59;32.44;100161.66;5010505;28;96902;-56
2020/12/31 08:34:56;;;;;;;1.17;0.60;;;;;;;22.60;32.47;100158.06;4977260;28;96884;-55
2020/12/31 08:37:23;;;;;;;1.00;0.60;;;;;;;22.60;32.22;100152.75;4991660;28;97495;-55
2020/12/31 08:39:52;;;;;;;0.80;0.70;;;;;;;22.59;32.15;100159.00;4992472;28;97484;-56
2020/12/31 08:42:22;;;;;;;1.02;0.70;;;;;;;22.60;32.16;100159.84;4993730;28;96990;-55
2020/12/31 08:44:53;;;;;;;0.73;0.65;;;;;;;22.59;32.21;100156.34;4974762;28;102984;-55
2020/12/31 08:47:20;;;;;;;0.80;0.60;;;;;;;22.60;32.33;100163.38;4977902;28;97702;-55
2020/12/31 08:49:52;;;;;;;0.75;0.55;;;;;;;22.60;32.39;100168.69;5011503;28;99430;-55
2020/12/31 08:52:18;;;;;;;0.77;0.57;;;;;;;22.61;32.23;100159.78;4993436;28;98213;-56
2020/12/31 08:54:44;;;;;;;0.90;0.50;;;;;;;22.60;32.36;100160.72;5012075;28;97067;-55
2020/12/31 08:57:19;;;;;;;0.60;0.52;;;;;;;22.59;32.31;100161.66;4993503;28;99434;-56
2020/12/31 08:59:44;;;;;;;2.20;0.75;;;;;;;22.61;32.27;100167.75;5012383;28;97430;-56
2020/12/31 09:02:11;;;;;;;1.73;0.90;;;;;;;22.61;32.62;100156.25;4989752;28;117052;-55
2020/12/31 09:04:37;;;;;;;1.75;0.50;;;;;;;22.61;32.46;100170.41;4978390;28;97137;-56
2020/12/31 09:07:09;;;;;;;3.63;0.90;;;;;;;22.62;32.58;100165.97;4980327;28;126816;-56
2020/12/31 09:09:34;;;;;;;1.52;0.73;;;;;;;22.62;32.19;100169.47;5007441;28;97159;-56
2020/12/31 09:12:08;;;;;;;3.08;0.80;;;;;;;22.62;32.46;100172.13;4982824;28;117362;-56
2020/12/31 09:14:38;;;;;;;1.52;0.70;;;;;;;22.63;32.21;100173.00;4985574;28;97204;-56
2020/12/31 09:17:21;;;;;;;1.40;1.10;;;;;;;22.62;32.20;100176.59;4991885;28;97539;-56
2020/12/31 09:19:53;;;;;;;1.63;0.80;;;;;;;22.64;32.57;100177.38;5002139;28;97239;-56
2020/12/31 09:22:19;;;;;;;1.23;0.85;;;;;;;22.66;32.46;100182.63;5000889;28;97158;-56
2020/12/31 09:24:44;;;;;;;4.13;0.60;;;;;;;22.65;32.25;100183.56;4993632;28;96697;-56
2020/12/31 09:27:10;;;;;;;0.73;0.55;;;;;;;22.64;32.46;100174.72;4993433;28;97554;-55
2020/12/31 09:29:35;;;;;;;0.60;0.40;;;;;;;22.65;32.24;100176.44;4993422;28;98879;-55
2020/12/31 09:32:01;;;;;;;0.95;0.80;;;;;;;22.65;32.08;100173.78;4990194;28;116858;-55
2020/12/31 09:34:26;;;;;;;0.90;0.50;;;;;;;22.65;32.08;100176.44;4976047;28;114772;-55
2020/12/31 09:36:58;;;;;;;0.90;0.52;;;;;;;22.65;32.22;100176.44;5004430;28;97460;-55
2020/12/31 09:39:23;;;;;;;1.58;0.77;;;;;;;22.66;31.86;100175.50;4981737;28;97421;-55
2020/12/31 09:41:49;;;;;;;1.23;0.60;;;;;;;22.65;32.07;100172.91;4995382;28;117892;-55
2020/12/31 09:44:14;;;;;;;0.90;0.68;;;;;;;22.66;32.14;100180.81;4995185;28;117448;-55
2020/12/31 09:46:40;;;;;;;1.05;0.60;;;;;;;22.65;32.26;100170.25;4980846;28;126792;-55
2020/12/31 09:49:05;;;;;;;1.10;0.60;;;;;;;22.65;32.27;100165.78;5012105;28;102849;-55
2020/12/31 09:51:31;;;;;;;1.38;0.68;;;;;;;22.65;32.13;100171.13;5015022;28;116987;-55
2020/12/31 09:53:56;;;;;;;0.63;0.40;;;;;;;22.65;32.27;100171.13;5014812;28;116787;-56
2020/12/31 09:56:27;;;;;;;0.88;0.63;;;;;;;22.66;32.11;100169.34;5015486;28;123807;-55
2020/12/31 09:58:53;;;;;;;0.47;0.47;;;;;;;22.65;31.97;100168.47;5002127;28;97257;-55
2020/12/31 10:01:21;;;;;;;0.80;0.50;;;;;;;22.66;31.98;100166.69;5015792;28;116880;-55
2020/12/31 10:03:47;;;;;;;0.80;0.60;;;;;;;22.66;31.83;100172.00;4997603;28;96966;-55
2020/12/31 10:06:12;;;;;;;0.60;0.60;;;;;;;22.66;31.94;100166.69;5005786;28;97510;-55
2020/12/31 10:08:38;;;;;;;1.15;0.77;;;;;;;22.64;31.87;100174.72;4997449;28;99872;-55
2020/12/31 10:11:04;;;;;;;1.95;0.88;;;;;;;22.63;31.83;100173.84;5015070;28;96966;-55
2020/12/31 10:13:30;;;;;;;1.75;0.95;;;;;;;22.63;31.69;100170.34;4993882;28;116825;-55
2020/12/31 10:16:02;;;;;;;1.48;1.00;;;;;;;22.62;32.01;100172.13;4994478;28;111100;-55
2020/12/31 10:18:28;;;;;;;2.10;0.68;;;;;;;22.62;31.82;100163.31;5012620;28;121446;-55
2020/12/31 10:20:53;;;;;;;3.03;0.80;;;;;;;22.62;32.09;100158.00;5013856;28;97393;-55
2020/12/31 10:23:20;;;;;;;2.65;0.93;;;;;;;22.61;31.72;100156.25;4983866;28;97248;-55
2020/12/31 10:25:47;;;;;;;1.73;0.90;;;;;;;22.62;32.13;100156.19;5013266;28;97600;-55
2020/12/31 10:28:13;;;;;;;2.55;0.88;;;;;;;22.61;31.83;100154.47;4994640;28;99624;-55
2020/12/31 10:30:38;;;;;;;3.75;1.08;;;;;;;22.61;32.16;100159.78;5011122;28;102749;-55
2020/12/31 10:33:04;;;;;;;1.95;1.55;;;;;;;22.61;32.03;100162.44;5015214;28;119323;-55
2020/12/31 10:35:29;;;;;;;1.33;0.50;;;;;;;22.61;32.13;100156.25;4990472;28;127431;-55
2020/12/31 10:37:55;;;;;;;2.05;0.52;;;;;;;22.61;31.85;100156.25;5006595;28;126496;-55
2020/12/31 10:40:20;;;;;;;1.67;0.77;;;;;;;22.61;32.07;100162.44;4986024;28;96902;-55
2020/12/31 10:42:46;;;;;;;2.38;0.90;;;;;;;22.61;31.82;100159.78;4985235;28;116445;-55
2020/12/31 10:45:11;;;;;;;2.65;0.65;;;;;;;22.61;31.70;100146.47;4990923;28;126774;-55
2020/12/31 10:47:37;;;;;;;1.83;0.60;;;;;;;22.61;31.96;100157.13;5008705;28;114517;-55
2020/12/31 10:50:03;;;;;;;2.75;0.95;;;;;;;22.61;31.62;100156.25;4990942;28;97974;-55
2020/12/31 10:52:28;;;;;;;1.10;0.80;;;;;;;22.60;31.40;100152.75;4978959;28;98383;-55
2020/12/31 10:54:53;;;;;;;3.10;1.00;;;;;;;22.57;31.69;100152.88;4994654;28;127017;-55
2020/12/31 10:57:20;;;;;;;1.40;1.10;;;;;;;22.55;31.49;100152.09;5010828;28;127727;-55
2020/12/31 10:59:46;;;;;;;2.83;2.45;;;;;;;22.53;31.34;100148.66;4981202;28;96790;-55
2020/12/31 11:02:11;;;;;;;1.33;0.90;;;;;;;22.53;31.53;100150.44;4999014;28;96821;-55
2020/12/31 11:04:37;;;;;;;1.55;0.85;;;;;;;22.53;31.54;100151.31;5010766;28;97459;-55
2020/12/31 11:07:02;;;;;;;1.88;0.75;;;;;;;22.53;31.43;100156.63;4989579;28;114982;-55
2020/12/31 11:09:29;;;;;;;2.20;1.63;;;;;;;22.53;31.17;100153.09;4989802;28;117043;-55
2020/12/31 11:11:55;;;;;;;0.95;0.80;;;;;;;22.54;31.47;100154.84;5013148;28;96892;-55
2020/12/31 11:14:20;;;;;;;1.75;0.70;;;;;;;22.54;31.15;100149.53;4988945;28;97570;-55
2020/12/31 11:16:50;;;;;;;1.05;0.50;;;;;;;22.53;31.48;100148.66;4991278;28;116109;-55
2020/12/31 11:19:15;;;;;;;1.90;0.70;;;;;;;22.54;31.19;100145.06;5005780;28;117988;-56
2020/12/31 11:21:41;;;;;;;1.40;1.10;;;;;;;22.53;31.02;100148.66;4961556;28;97045;-55
2020/12/31 11:24:06;;;;;;;1.35;0.85;;;;;;;22.52;31.10;100146.09;4975890;28;127418;-56
2020/12/31 11:26:32;;;;;;;2.38;1.20;;;;;;;22.52;31.28;100148.75;5001754;28;97178;-56
2020/12/31 11:28:57;;;;;;;2.40;0.98;;;;;;;22.51;31.18;100147.00;5000987;28;107010;-55
2020/12/31 11:31:24;;;;;;;1.00;0.90;;;;;;;22.50;31.49;100146.16;4979615;28;96846;-50
2020/12/31 11:33:49;;;;;;;1.08;0.90;;;;;;;22.50;31.42;100146.16;4975469;28;102354;-50
2020/12/31 11:36:15;;;;;;;4.13;1.00;;;;;;;22.51;31.22;100147.00;5020072;22;97198;-55
2020/12/31 11:38:40;;;;;;;2.55;0.80;;;;;;;22.51;31.55;100141.69;4959066;28;107870;-55
2020/12/31 11:41:06;;;;;;;1.30;0.80;;;;;;;22.51;31.10;100142.53;4975534;28;116840;-54
2020/12/31 11:43:35;;;;;;;1.30;0.90;;;;;;;22.51;30.97;100136.38;4974738;28;104662;-55
2020/12/31 11:46:00;;;;;;;1.30;0.75;;;;;;;22.52;31.41;100138.09;4976301;28;113850;-55